createdAt,value
2019-03-08T00:01:54.895Z,9.52
2019-03-08T00:12:00.134Z,9.36
2019-03-08T00:22:08.705Z,9.62
2019-03-08T00:32:14.306Z,9.60
2019-03-08T00:42:19.283Z,9.73
2019-03-08T00:52:24.166Z,9.57
2019-03-08T01:02:29.049Z,9.44
2019-03-08T01:12:33.941Z,9.39
2019-03-08T01:22:39.105Z,9.12
2019-03-08T01:32:44.012Z,9.07
2019-03-08T01:42:48.874Z,8.82
2019-03-08T01:52:53.743Z,8.63
2019-03-08T02:02:58.612Z,8.69
2019-03-08T02:13:03.505Z,8.53
2019-03-08T02:23:08.662Z,8.43
2019-03-08T02:33:13.529Z,8.27
2019-03-08T02:43:18.891Z,8.26
2019-03-08T02:53:23.740Z,8.21
2019-03-08T03:03:28.594Z,7.91
2019-03-08T03:13:33.436Z,7.64
2019-03-08T03:23:38.606Z,7.65
2019-03-08T03:33:43.503Z,7.56
2019-03-08T03:43:48.384Z,7.56
2019-03-08T03:53:53.271Z,7.55
2019-03-08T04:03:58.168Z,7.47
2019-03-08T04:14:03.043Z,7.73
2019-03-08T04:24:07.916Z,7.70
2019-03-08T04:34:12.819Z,7.80
2019-03-08T04:44:17.705Z,7.83
2019-03-08T04:54:22.572Z,7.70
2019-03-08T05:04:27.448Z,7.83
2019-03-08T05:14:32.591Z,7.86
2019-03-08T05:24:37.493Z,7.89
2019-03-08T05:34:42.387Z,7.79
2019-03-08T05:44:47.282Z,7.96
2019-03-08T05:54:52.160Z,8.32
2019-03-08T06:04:57.107Z,8.44
2019-03-08T06:15:01.998Z,9.30
2019-03-08T06:25:07.379Z,9.59
2019-03-08T06:35:12.614Z,9.70
2019-03-08T06:45:18.303Z,9.95
2019-03-08T06:55:23.429Z,9.86
2019-03-08T07:05:28.459Z,10.06
2019-03-08T07:15:33.365Z,12.01
2019-03-08T07:25:58.023Z,13.00
2019-03-08T07:36:13.054Z,13.62
2019-03-08T07:46:37.645Z,13.56
2019-03-08T07:56:44.074Z,14.67
2019-03-08T08:06:53.209Z,13.21
2019-03-08T08:17:15.536Z,12.34
2019-03-08T08:27:21.980Z,13.16
2019-03-08T08:37:37.478Z,16.38
2019-03-08T08:47:46.735Z,16.87
2019-03-08T08:58:09.249Z,15.12
2019-03-08T09:08:15.720Z,14.39
2019-03-08T09:18:34.056Z,14.99
2019-03-08T09:28:43.478Z,14.81
2019-03-08T09:38:50.324Z,16.16
2019-03-08T09:49:02.522Z,16.36
2019-03-08T09:59:25.114Z,17.24
2019-03-08T10:09:31.568Z,16.37
2019-03-08T10:19:43.717Z,14.53
2019-03-08T10:30:05.085Z,14.55
2019-03-08T10:40:11.470Z,16.95
2019-03-08T10:50:33.810Z,14.48
2019-03-08T11:00:55.281Z,14.18
2019-03-08T11:11:16.648Z,17.44
2019-03-08T11:21:26.164Z,18.99
2019-03-08T11:31:35.621Z,16.04
2019-03-08T11:41:54.036Z,14.20
2019-03-08T11:52:12.226Z,14.58
2019-03-08T12:02:27.748Z,14.23
2019-03-08T12:12:34.184Z,13.41
2019-03-08T12:22:40.651Z,13.38
2019-03-08T12:32:53.237Z,13.55
2019-03-08T12:43:07.584Z,13.47
2019-03-08T12:53:11.732Z,13.03
2019-03-08T13:03:30.224Z,13.41
2019-03-08T13:13:35.127Z,13.15
2019-03-08T13:23:40.019Z,12.68
2019-03-08T13:33:44.907Z,12.50
2019-03-08T13:43:49.793Z,12.70
2019-03-08T13:53:54.784Z,12.79
2019-03-08T14:03:59.736Z,12.72
2019-03-08T14:14:05.108Z,12.78
2019-03-08T14:24:11.000Z,12.67
2019-03-08T14:34:17.088Z,12.24
2019-03-08T14:44:45.977Z,12.12
2019-03-08T14:54:52.538Z,12.00
2019-03-08T15:04:57.629Z,12.07
2019-03-08T15:15:02.509Z,11.94
2019-03-08T15:25:12.677Z,11.76
2019-03-08T15:35:17.480Z,11.72
2019-03-08T15:45:24.929Z,11.60
2019-03-08T15:55:30.038Z,11.51
2019-03-08T16:05:35.132Z,11.42
2019-03-08T16:15:40.117Z,11.29
2019-03-08T16:36:43.122Z,11.14
2019-03-08T16:46:49.462Z,10.97
2019-03-08T16:56:55.931Z,10.80
2019-03-08T17:07:11.448Z,10.69
2019-03-08T17:17:17.889Z,10.61
2019-03-08T17:27:24.475Z,10.46
2019-03-08T17:37:30.967Z,10.50
2019-03-08T17:47:46.584Z,10.44
2019-03-08T17:58:04.765Z,10.32
2019-03-08T18:08:14.235Z,10.38
2019-03-08T18:18:20.690Z,10.13
2019-03-08T18:28:27.131Z,8.84
2019-03-08T18:38:42.836Z,8.19
2019-03-08T18:59:22.238Z,8.23
2019-03-08T19:09:31.901Z,8.09
2019-03-08T19:30:35.739Z,7.60
2019-03-08T19:40:45.687Z,7.52
2019-03-08T19:51:08.742Z,7.14
2019-03-08T20:01:18.327Z,7.07
2019-03-08T20:11:30.960Z,6.96
2019-03-08T20:21:55.627Z,6.81
2019-03-08T20:32:11.098Z,6.69
2019-03-08T20:42:33.891Z,6.55
2019-03-08T20:52:38.992Z,6.53
2019-03-08T21:02:44.299Z,6.63
2019-03-08T21:12:49.616Z,6.53
2019-03-08T21:22:54.757Z,6.38
2019-03-08T21:32:59.959Z,6.18
2019-03-08T21:43:06.465Z,6.11
2019-03-08T21:53:11.550Z,6.02
2019-03-08T22:03:16.541Z,5.84
2019-03-08T22:13:21.650Z,5.96
2019-03-08T22:23:26.494Z,5.75
2019-03-08T22:33:31.411Z,5.49
2019-03-08T22:43:36.280Z,5.26
2019-03-08T22:53:41.227Z,5.09
2019-03-08T23:03:46.306Z,5.02
2019-03-08T23:13:51.471Z,5.06
2019-03-08T23:23:56.360Z,4.60
2019-03-08T23:34:02.910Z,4.92
2019-03-08T23:44:07.920Z,4.83
2019-03-08T23:54:12.824Z,4.53
